createdAt,value
2022-08-05T00:02:07.827Z,32.20
2022-08-05T00:04:40.283Z,32.16
2022-08-05T00:07:27.362Z,32.13
2022-08-05T00:09:58.809Z,32.10
2022-08-05T00:12:31.946Z,32.06
2022-08-05T00:14:59.781Z,32.08
2022-08-05T00:22:29.466Z,31.86
2022-08-05T00:24:59.441Z,31.79
2022-08-05T00:27:36.206Z,31.82
2022-08-05T00:30:11.501Z,31.84
2022-08-05T00:32:40.564Z,31.85
2022-08-05T00:35:09.572Z,31.80
2022-08-05T00:40:29.582Z,31.72
2022-08-05T00:43:01.627Z,31.71
2022-08-05T00:45:42.891Z,31.66
2022-08-05T00:48:18.125Z,31.63
2022-08-05T00:50:54.993Z,31.59
2022-08-05T00:53:45.353Z,31.63
2022-08-05T00:56:12.847Z,31.66
2022-08-05T01:01:48.111Z,31.62
2022-08-05T01:04:20.202Z,31.60
2022-08-05T01:06:55.144Z,31.54
2022-08-05T01:09:22.840Z,31.54
2022-08-05T01:11:52.859Z,31.58
2022-08-05T01:14:45.237Z,31.60
2022-08-05T01:17:39.903Z,31.55
2022-08-05T01:25:52.345Z,31.55
2022-08-05T01:28:39.370Z,31.58
2022-08-05T01:31:29.704Z,31.57
2022-08-05T01:34:08.868Z,31.53
2022-08-05T01:36:47.106Z,31.46
2022-08-05T01:39:34.517Z,31.43
2022-08-05T01:44:56.253Z,31.46
2022-08-05T01:47:38.894Z,31.44
2022-08-05T01:50:14.976Z,31.38
2022-08-05T01:52:59.953Z,31.38
2022-08-05T01:55:30.575Z,31.36
2022-08-05T01:58:29.257Z,31.35
2022-08-05T02:06:37.777Z,31.31
2022-08-05T02:09:08.186Z,31.37
2022-08-05T02:12:03.599Z,31.37
2022-08-05T02:14:34.385Z,31.40
2022-08-05T02:18:28.478Z,31.46
2022-08-05T02:20:24.611Z,31.42
2022-08-05T02:23:03.423Z,31.36
2022-08-05T02:30:54.125Z,31.33
2022-08-05T02:33:38.648Z,31.34
2022-08-05T02:36:15.555Z,31.38
2022-08-05T02:38:52.923Z,31.29
2022-08-05T02:41:28.953Z,31.23
2022-08-05T02:44:13.152Z,31.25
2022-08-05T02:52:25.928Z,31.30
2022-08-05T02:55:06.551Z,31.35
2022-08-05T02:58:10.664Z,31.34
2022-08-05T03:00:29.147Z,31.32
2022-08-05T03:02:59.919Z,31.30
2022-08-05T03:06:54.422Z,31.33
2022-08-05T03:08:26.926Z,31.35
2022-08-05T03:14:46.104Z,31.17
2022-08-05T03:17:15.420Z,31.14
2022-08-05T03:19:42.791Z,31.13
2022-08-05T03:22:16.686Z,31.08
2022-08-05T03:24:50.702Z,31.04
2022-08-05T03:27:21.710Z,30.97
2022-08-05T03:30:08.121Z,30.93
2022-08-05T03:37:46.202Z,30.92
2022-08-05T03:40:24.427Z,30.95
2022-08-05T03:43:01.474Z,31.04
2022-08-05T03:45:57.861Z,31.09
2022-08-05T03:48:29.860Z,31.10
2022-08-05T03:52:37.866Z,31.14
2022-08-05T03:55:50.404Z,31.13
2022-08-05T04:02:52.285Z,30.95
2022-08-05T04:05:33.280Z,30.95
2022-08-05T04:08:29.608Z,30.97
2022-08-05T04:10:59.516Z,30.92
2022-08-05T04:13:51.161Z,30.88
2022-08-05T04:16:24.319Z,30.87
2022-08-05T04:19:00.908Z,30.87
2022-08-05T04:26:38.696Z,30.84
2022-08-05T04:29:08.341Z,30.82
2022-08-05T04:31:38.695Z,30.77
2022-08-05T04:34:31.450Z,30.74
2022-08-05T04:36:56.050Z,30.77
2022-08-05T04:39:27.567Z,30.85
2022-08-05T04:41:55.536Z,30.89
2022-08-05T04:49:38.415Z,30.95
2022-08-05T04:52:19.499Z,30.98
2022-08-05T04:54:49.437Z,30.97
2022-08-05T04:57:19.171Z,30.97
2022-08-05T04:59:49.725Z,30.98
2022-08-05T05:02:36.520Z,30.99
2022-08-05T05:05:26.128Z,30.95
2022-08-05T05:13:04.220Z,30.79
2022-08-05T05:15:56.481Z,30.76
2022-08-05T05:18:31.158Z,30.76
2022-08-05T05:21:03.332Z,30.74
2022-08-05T05:23:39.228Z,30.73
2022-08-05T05:26:28.601Z,30.77
2022-08-05T05:29:00.655Z,30.77
2022-08-05T05:38:59.137Z,30.77
2022-08-05T05:41:40.383Z,30.78
2022-08-05T05:44:35.875Z,30.78
2022-08-05T05:47:04.251Z,30.75
2022-08-05T05:49:33.115Z,30.76
2022-08-05T05:52:01.186Z,30.77
2022-08-05T05:54:50.835Z,30.80
2022-08-05T06:01:13.050Z,30.76
2022-08-05T06:04:01.555Z,30.78
2022-08-05T06:06:33.253Z,30.78
2022-08-05T06:09:04.278Z,30.78
2022-08-05T06:11:35.059Z,30.76
2022-08-05T06:14:08.465Z,30.71
2022-08-05T06:16:37.553Z,30.70
2022-08-05T06:21:49.724Z,30.74
2022-08-05T06:24:25.658Z,30.75
2022-08-05T06:26:55.496Z,30.73
2022-08-05T06:29:48.993Z,30.75
2022-08-05T06:32:25.146Z,30.75
2022-08-05T06:34:59.597Z,30.73
2022-08-05T06:37:55.587Z,30.74
2022-08-05T06:44:10.055Z,30.70
2022-08-05T06:46:39.514Z,30.70
2022-08-05T06:49:10.014Z,30.70
2022-08-05T06:51:40.993Z,30.71
2022-08-05T06:54:10.029Z,30.72
2022-08-05T06:56:54.387Z,30.59
2022-08-05T06:59:22.660Z,30.43
2022-08-05T07:04:30.150Z,30.22
2022-08-05T07:06:59.258Z,30.19
2022-08-05T07:09:32.400Z,30.12
2022-08-05T07:12:08.278Z,30.10
2022-08-05T07:14:54.169Z,30.10
2022-08-05T07:18:00.161Z,30.08
2022-08-05T07:25:54.345Z,30.09
2022-08-05T07:28:08.372Z,30.08
2022-08-05T07:30:41.260Z,30.10
2022-08-05T07:33:16.242Z,30.13
2022-08-05T07:36:05.387Z,30.17
2022-08-05T07:38:43.491Z,30.19
2022-08-05T07:42:14.526Z,30.23
2022-08-05T07:48:00.879Z,30.24
2022-08-05T07:50:33.480Z,30.24
2022-08-05T07:53:01.041Z,30.26
2022-08-05T07:56:04.740Z,30.26
2022-08-05T07:58:54.641Z,30.23
2022-08-05T08:01:12.324Z,30.16
2022-08-05T08:03:44.271Z,30.18
2022-08-05T08:08:56.522Z,30.18
2022-08-05T08:11:27.767Z,30.19
2022-08-05T08:14:17.514Z,30.19
2022-08-05T08:16:50.721Z,30.19
2022-08-05T08:20:22.635Z,30.17
2022-08-05T08:22:15.924Z,30.17
2022-08-05T08:24:51.301Z,30.14
2022-08-05T08:32:28.027Z,30.12
2022-08-05T08:34:55.740Z,30.10
2022-08-05T08:37:28.070Z,30.01
2022-08-05T08:39:55.832Z,29.95
2022-08-05T08:42:34.140Z,29.90
2022-08-05T08:45:19.238Z,29.86
2022-08-05T08:52:03.127Z,29.73
2022-08-05T08:54:11.274Z,29.71
2022-08-05T08:56:47.893Z,29.70
2022-08-05T08:59:20.782Z,29.68
2022-08-05T09:01:57.054Z,29.65
2022-08-05T09:04:30.350Z,29.62
2022-08-05T09:07:00.381Z,29.57
2022-08-05T09:15:54.122Z,29.51
2022-08-05T09:18:22.505Z,29.52
2022-08-05T09:20:51.214Z,29.49
2022-08-05T09:23:21.794Z,29.36
2022-08-05T09:26:09.770Z,29.35
2022-08-05T09:28:39.801Z,29.31
2022-08-05T09:31:44.023Z,29.31
2022-08-05T09:36:59.916Z,29.32
2022-08-05T09:39:45.116Z,29.33
2022-08-05T09:42:23.898Z,29.35
2022-08-05T09:45:03.139Z,29.29
2022-08-05T09:47:55.689Z,29.29
2022-08-05T09:50:44.111Z,29.31
2022-08-05T09:53:22.902Z,29.29
2022-08-05T10:03:56.762Z,29.28
2022-08-05T10:06:21.014Z,29.25
2022-08-05T10:08:50.307Z,29.23
2022-08-05T10:11:21.641Z,29.22
2022-08-05T10:13:54.680Z,29.21
2022-08-05T10:16:41.573Z,29.22
2022-08-05T10:19:13.548Z,29.21
2022-08-05T10:30:06.419Z,28.94
2022-08-05T10:32:52.877Z,28.93
2022-08-05T10:35:40.399Z,28.99
2022-08-05T10:38:12.795Z,29.04
2022-08-05T10:40:58.069Z,28.96
2022-08-05T10:43:45.583Z,28.87
2022-08-05T10:46:23.751Z,28.79
2022-08-05T10:54:05.966Z,28.73
2022-08-05T10:57:00.228Z,28.70
2022-08-05T11:00:02.873Z,28.70
2022-08-05T11:02:37.609Z,28.71
2022-08-05T11:05:10.510Z,28.76
2022-08-05T11:08:02.952Z,28.87
2022-08-05T11:20:17.442Z,28.97
2022-08-05T11:22:53.975Z,29.05
2022-08-05T11:26:04.839Z,29.08
2022-08-05T11:28:25.911Z,29.10
2022-08-05T11:30:58.407Z,29.18
2022-08-05T11:33:46.503Z,29.28
2022-08-05T11:41:35.122Z,29.50
2022-08-05T11:44:05.460Z,29.63
2022-08-05T11:46:37.940Z,29.75
2022-08-05T11:49:28.548Z,29.88
2022-08-05T11:51:57.411Z,30.02
2022-08-05T11:54:40.714Z,30.17
2022-08-05T11:57:24.876Z,30.31
2022-08-05T12:08:03.379Z,30.54
2022-08-05T12:10:43.589Z,30.69
2022-08-05T12:13:18.481Z,30.71
2022-08-05T12:15:56.260Z,30.70
2022-08-05T12:18:38.849Z,30.62
2022-08-05T12:21:15.386Z,30.54
2022-08-05T12:24:04.359Z,30.60
2022-08-05T12:31:57.425Z,30.47
2022-08-05T12:34:30.218Z,30.36
2022-08-05T12:37:10.470Z,30.32
2022-08-05T12:39:44.873Z,30.29
2022-08-05T12:42:21.556Z,30.26
2022-08-05T12:44:52.954Z,30.19
2022-08-05T12:50:21.373Z,30.14
2022-08-05T12:53:01.360Z,30.08
2022-08-05T12:55:32.840Z,29.99
2022-08-05T12:58:49.373Z,29.95
2022-08-05T13:02:02.435Z,29.87
2022-08-05T13:03:42.019Z,29.82
2022-08-05T13:08:57.687Z,30.28
2022-08-05T13:12:02.101Z,30.65
2022-08-05T13:14:36.196Z,31.07
2022-08-05T13:17:15.747Z,31.34
2022-08-05T13:20:06.868Z,31.59
2022-08-05T13:22:40.151Z,31.73
2022-08-05T13:30:32.879Z,32.13
2022-08-05T13:33:04.438Z,32.25
2022-08-05T13:35:47.449Z,32.20
2022-08-05T13:38:30.473Z,32.31
2022-08-05T13:41:01.960Z,32.54
2022-08-05T13:43:45.165Z,32.69
2022-08-05T13:46:35.677Z,32.88
2022-08-05T13:51:46.578Z,32.83
2022-08-05T13:54:17.189Z,32.86
2022-08-05T13:56:52.004Z,33.01
2022-08-05T13:59:24.905Z,33.09
2022-08-05T14:01:59.865Z,33.17
2022-08-05T14:04:52.084Z,33.42
2022-08-05T14:08:00.783Z,33.46
2022-08-05T14:14:30.866Z,33.49
2022-08-05T14:17:01.525Z,33.48
2022-08-05T14:19:30.433Z,33.49
2022-08-05T14:22:17.838Z,33.55
2022-08-05T14:24:47.704Z,33.72
2022-08-05T14:27:18.681Z,33.89
2022-08-05T14:32:31.281Z,34.04
2022-08-05T14:35:00.780Z,34.06
2022-08-05T14:37:42.201Z,34.05
2022-08-05T14:40:16.850Z,34.06
2022-08-05T14:42:44.537Z,34.34
2022-08-05T14:45:12.127Z,34.47
2022-08-05T14:48:02.698Z,34.71
2022-08-05T14:55:42.260Z,34.86
2022-08-05T14:58:13.840Z,35.02
2022-08-05T15:00:58.416Z,35.24
2022-08-05T15:03:33.799Z,35.22
2022-08-05T15:06:15.296Z,35.47
2022-08-05T15:09:01.330Z,35.90
2022-08-05T15:16:51.092Z,36.26
2022-08-05T15:19:23.618Z,36.13
2022-08-05T15:21:51.443Z,35.88
2022-08-05T15:24:20.713Z,35.52
2022-08-05T15:26:50.515Z,35.43
2022-08-05T15:29:17.910Z,35.33
2022-08-05T15:31:53.123Z,35.23
2022-08-05T15:36:58.641Z,35.32
2022-08-05T15:41:02.518Z,35.69
2022-08-05T15:42:56.189Z,35.79
2022-08-05T15:45:13.077Z,35.50
2022-08-05T15:47:42.826Z,35.30
2022-08-05T15:50:15.120Z,35.24
2022-08-05T15:56:02.090Z,35.29
2022-08-05T15:58:16.351Z,35.42
2022-08-05T16:01:03.452Z,35.64
2022-08-05T16:03:32.629Z,35.58
2022-08-05T16:06:02.366Z,35.15
2022-08-05T16:08:31.190Z,35.02
2022-08-05T16:11:00.537Z,35.25
2022-08-05T16:16:25.409Z,35.62
2022-08-05T16:18:53.146Z,35.78
2022-08-05T16:22:00.619Z,35.86
2022-08-05T16:24:12.782Z,36.14
2022-08-05T16:27:03.475Z,36.35
2022-08-05T16:29:37.366Z,36.68
2022-08-05T16:36:51.424Z,36.82
2022-08-05T16:39:22.121Z,36.59
2022-08-05T16:42:14.782Z,36.47
2022-08-05T16:44:44.434Z,36.29
2022-08-05T16:47:28.682Z,36.12
2022-08-05T16:50:05.399Z,36.02
2022-08-05T16:57:50.479Z,36.01
2022-08-05T17:00:25.928Z,35.92
2022-08-05T17:03:03.858Z,36.20
2022-08-05T17:05:37.625Z,36.39
2022-08-05T17:08:05.208Z,36.42
2022-08-05T17:10:36.879Z,36.30
2022-08-05T17:13:05.661Z,35.81
2022-08-05T17:18:22.479Z,35.15
2022-08-05T17:20:51.222Z,34.94
2022-08-05T17:24:04.595Z,34.73
2022-08-05T17:26:09.631Z,34.60
2022-08-05T17:28:40.882Z,34.56
2022-08-05T17:31:24.650Z,34.68
2022-08-05T17:38:35.214Z,35.13
2022-08-05T17:41:02.758Z,35.47
2022-08-05T17:43:50.361Z,35.67
2022-08-05T17:46:21.215Z,35.86
2022-08-05T17:48:54.175Z,35.90
2022-08-05T17:51:22.353Z,36.02
2022-08-05T17:53:54.864Z,36.33
2022-08-05T17:56:22.940Z,36.43
2022-08-05T18:04:04.453Z,36.05
2022-08-05T18:06:33.459Z,36.05
2022-08-05T18:09:03.410Z,36.21
2022-08-05T18:11:33.126Z,36.34
2022-08-05T18:14:13.209Z,36.51
2022-08-05T18:16:46.817Z,36.60
2022-08-05T18:19:22.654Z,36.45
2022-08-05T18:25:33.112Z,36.12
2022-08-05T18:28:05.052Z,35.80
2022-08-05T18:30:33.628Z,35.63
2022-08-05T18:33:02.393Z,35.67
2022-08-05T18:36:01.126Z,35.82
2022-08-05T18:38:19.328Z,35.97
2022-08-05T18:41:58.150Z,35.79
2022-08-05T18:52:04.881Z,35.92
2022-08-05T18:54:21.435Z,35.87
2022-08-05T18:56:52.011Z,35.79
2022-08-05T18:59:44.060Z,35.60
2022-08-05T19:02:26.490Z,35.82
2022-08-05T19:05:02.210Z,36.15
2022-08-05T19:12:58.713Z,35.58
2022-08-05T19:15:58.876Z,35.67
2022-08-05T19:18:22.315Z,36.04
2022-08-05T19:20:53.085Z,36.35
2022-08-05T19:26:11.324Z,36.09
2022-08-05T19:31:51.034Z,34.76
2022-08-05T19:34:19.092Z,34.28
2022-08-05T19:36:50.002Z,33.90
2022-08-05T19:39:17.953Z,33.53
2022-08-05T19:42:07.363Z,33.27
2022-08-05T19:44:36.271Z,32.97
2022-08-05T19:47:10.166Z,32.79
2022-08-05T19:52:31.227Z,32.57
2022-08-05T19:55:06.831Z,32.51
2022-08-05T19:57:46.383Z,32.56
2022-08-05T20:00:24.388Z,32.55
2022-08-05T20:02:51.951Z,32.53
2022-08-05T20:05:24.490Z,32.51
2022-08-05T20:07:58.805Z,32.47
2022-08-05T20:20:51.374Z,32.31
2022-08-05T20:23:23.833Z,32.27
2022-08-05T20:26:16.070Z,32.29
2022-08-05T20:28:56.918Z,32.34
2022-08-05T20:31:42.123Z,32.27
2022-08-05T20:34:12.350Z,32.25
2022-08-05T20:41:45.057Z,32.16
2022-08-05T20:44:18.397Z,32.07
2022-08-05T20:46:50.163Z,32.20
2022-08-05T20:49:24.050Z,32.43
2022-08-05T20:51:53.698Z,32.63
2022-08-05T20:54:43.631Z,32.72
2022-08-05T21:00:21.199Z,32.66
2022-08-05T21:02:51.414Z,32.62
2022-08-05T21:05:22.069Z,32.63
2022-08-05T21:07:52.401Z,32.68
2022-08-05T21:10:21.800Z,32.75
2022-08-05T21:12:57.655Z,32.91
2022-08-05T21:15:37.223Z,32.98
2022-08-05T21:21:24.423Z,33.35
2022-08-05T21:23:52.275Z,33.17
2022-08-05T21:26:21.802Z,33.15
2022-08-05T21:28:53.938Z,33.22
2022-08-05T21:31:41.385Z,33.32
2022-08-05T21:34:12.488Z,33.48
2022-08-05T21:36:42.401Z,33.65
2022-08-05T21:47:54.777Z,33.72
2022-08-05T21:50:10.117Z,33.45
2022-08-05T21:52:47.353Z,33.29
2022-08-05T21:55:15.270Z,33.15
2022-08-05T21:57:43.200Z,32.87
2022-08-05T22:00:12.133Z,32.49
2022-08-05T22:02:43.603Z,32.11
2022-08-05T22:09:14.636Z,31.52
2022-08-05T22:11:46.577Z,31.43
2022-08-05T22:14:33.304Z,31.37
2022-08-05T22:17:05.386Z,31.37
2022-08-05T22:20:00.644Z,31.44
2022-08-05T22:22:26.887Z,31.49
2022-08-05T22:25:18.015Z,31.53
2022-08-05T22:34:59.231Z,31.93
2022-08-05T22:37:32.126Z,31.74
2022-08-05T22:40:20.612Z,31.63
2022-08-05T22:42:53.114Z,31.60
2022-08-05T22:45:26.431Z,31.57
2022-08-05T22:47:56.927Z,31.51
2022-08-05T22:58:03.421Z,31.55
2022-08-05T23:00:32.749Z,31.53
2022-08-05T23:03:04.313Z,31.55
2022-08-05T23:05:36.133Z,31.60
2022-08-05T23:08:04.150Z,31.64
2022-08-05T23:10:32.787Z,31.64
2022-08-05T23:13:03.886Z,31.63
2022-08-05T23:19:50.841Z,31.44
2022-08-05T23:22:27.291Z,31.38
2022-08-05T23:24:56.526Z,31.39
2022-08-05T23:27:31.320Z,31.36
2022-08-05T23:30:14.599Z,31.30
2022-08-05T23:32:45.261Z,31.26
2022-08-05T23:40:12.197Z,31.07
2022-08-05T23:42:41.725Z,31.05
2022-08-05T23:45:15.928Z,31.03
2022-08-05T23:47:47.726Z,31.03
2022-08-05T23:50:20.263Z,31.01
2022-08-05T23:52:51.500Z,31.00
2022-08-05T23:58:07.380Z,30.95
